Time;durP1;ratioP1;P1;durP2;ratioP2;P2;SDS_P1;SDS_P2;PMS_P1;PMS_P2;Temp;Humidity;BMP_temperature;BMP_pressure;BME280_temperature;BME280_humidity;BME280_pressure;Samples;Min_cycle;Max_cycle;Signal;HPM_P1;HPM_P2
2023/04/14 00:00:05;;;;;;;45.27;27.50;;;;;;;;;;7769451;22;19992;-90
2023/04/14 00:03:05;;;;;;;45.13;26.13;;;;;;;;;;7769428;22;20321;-91
2023/04/14 00:06:06;;;;;;;42.13;25.67;;;;;;;;;;7800052;22;20000;-90
2023/04/14 00:09:06;;;;;;;49.20;26.53;;;;;;;;;;7772700;22;19992;-90
2023/04/14 00:12:07;;;;;;;37.73;23.93;;;;;;;;;;7799400;22;20006;-90
2023/04/14 00:15:07;;;;;;;44.40;26.40;;;;;;;;;;7772406;22;19995;-90
2023/04/14 00:18:07;;;;;;;45.23;25.77;;;;;;;;;;7772314;22;19992;-90
2023/04/14 00:21:08;;;;;;;48.60;25.80;;;;;;;;;;7779803;22;20019;-90
2023/04/14 00:24:08;;;;;;;47.20;25.90;;;;;;;;;;7789274;22;20048;-90
2023/04/14 00:27:09;;;;;;;58.90;37.60;;;;;;;;;;7784671;22;20409;-90
2023/04/14 00:30:09;;;;;;;53.97;29.77;;;;;;;;;;7768953;22;20028;-90
2023/04/14 00:33:10;;;;;;;64.87;35.70;;;;;;;;;;7770690;22;20004;-90
2023/04/14 00:36:10;;;;;;;60.80;32.70;;;;;;;;;;7771203;22;20305;-90
2023/04/14 00:39:11;;;;;;;55.20;32.83;;;;;;;;;;7795570;22;19991;-90
2023/04/14 00:42:11;;;;;;;55.33;31.93;;;;;;;;;;7766798;22;20000;-90
2023/04/14 00:45:24;;;;;;;50.30;30.00;;;;;;;;;;7768063;22;20129;-89
2023/04/14 00:48:24;;;;;;;44.67;27.83;;;;;;;;;;7768942;22;19991;-90
2023/04/14 00:51:26;;;;;;;42.53;23.70;;;;;;;;;;7768409;22;20003;-90
2023/04/14 00:54:27;;;;;;;43.22;24.77;;;;;;;;;;7768244;22;20022;-90
2023/04/14 00:57:28;;;;;;;41.40;25.85;;;;;;;;;;7767039;22;20014;-90
2023/04/14 01:00:29;;;;;;;44.00;24.00;;;;;;;;;;7767550;22;20338;-90
2023/04/14 01:03:30;;;;;;;36.78;21.88;;;;;;;;;;7766434;22;20007;-89
2023/04/14 01:06:31;;;;;;;43.90;24.77;;;;;;;;;;7767860;22;19996;-90
2023/04/14 01:09:31;;;;;;;41.47;24.97;;;;;;;;;;7766465;22;20436;-89
2023/04/14 01:12:34;;;;;;;41.43;24.57;;;;;;;;;;7765645;22;19996;-90
2023/04/14 01:15:41;;;;;;;41.67;23.88;;;;;;;;;;7764797;22;20000;-90
2023/04/14 01:18:44;;;;;;;40.78;23.95;;;;;;;;;;7765966;22;20003;-90
2023/04/14 01:21:47;;;;;;;39.30;23.58;;;;;;;;;;7767284;22;20047;-90
2023/04/14 01:24:53;;;;;;;41.60;23.50;;;;;;;;;;7766562;22;20004;-90
2023/04/14 01:28:08;;;;;;;38.22;22.55;;;;;;;;;;7741436;22;19996;-89
2023/04/14 01:31:18;;;;;;;38.25;23.35;;;;;;;;;;7766245;22;20019;-90
2023/04/14 01:34:20;;;;;;;38.00;23.15;;;;;;;;;;7766677;22;20023;-90
2023/04/14 01:37:32;;;;;;;43.88;24.45;;;;;;;;;;7765846;22;20331;-89
2023/04/14 01:40:33;;;;;;;45.85;25.08;;;;;;;;;;7765628;22;20078;-89
2023/04/14 01:43:38;;;;;;;50.10;26.20;;;;;;;;;;7765163;22;20082;-90
2023/04/14 01:46:39;;;;;;;42.80;24.58;;;;;;;;;;7763909;22;20039;-89
2023/04/14 01:49:40;;;;;;;45.87;26.50;;;;;;;;;;7763934;22;20003;-89
2023/04/14 01:52:42;;;;;;;58.03;32.77;;;;;;;;;;7765558;22;19995;-89
2023/04/14 01:55:43;;;;;;;;;;;;;;;;;;7765451;22;20397;-89
2023/04/14 01:58:44;;;;;;;53.95;31.60;;;;;;;;;;7766683;22;19982;-89
2023/04/14 02:01:45;;;;;;;52.50;28.88;;;;;;;;;;7764860;22;20011;-88
2023/04/14 02:04:46;;;;;;;42.43;26.27;;;;;;;;;;7765137;22;20007;-88
2023/04/14 02:07:47;;;;;;;48.35;28.83;;;;;;;;;;7791038;22;20002;-88
2023/04/14 02:10:48;;;;;;;51.57;27.70;;;;;;;;;;7763387;22;19995;-88
2023/04/14 02:13:50;;;;;;;47.35;26.38;;;;;;;;;;7764457;22;19988;-88
2023/04/14 02:16:51;;;;;;;38.53;22.50;;;;;;;;;;7791293;22;19996;-88
2023/04/14 02:19:52;;;;;;;46.13;26.20;;;;;;;;;;7762973;22;20034;-88
2023/04/14 02:22:53;;;;;;;39.83;23.20;;;;;;;;;;7763672;22;19995;-88
2023/04/14 02:25:56;;;;;;;35.60;20.63;;;;;;;;;;7762858;22;19999;-88
2023/04/14 02:29:01;;;;;;;40.30;22.75;;;;;;;;;;7762984;22;20417;-88
2023/04/14 02:32:03;;;;;;;38.40;21.40;;;;;;;;;;7762728;22;19999;-88
2023/04/14 02:35:25;;;;;;;38.97;22.85;;;;;;;;;;7762955;22;20006;-88
2023/04/14 02:38:37;;;;;;;38.42;23.13;;;;;;;;;;7758670;22;20450;-88
2023/04/14 02:41:39;;;;;;;34.05;20.13;;;;;;;;;;7762955;22;20481;-88
2023/04/14 02:44:46;;;;;;;37.80;19.83;;;;;;;;;;7762598;22;20312;-88
2023/04/14 02:47:48;;;;;;;34.30;20.38;;;;;;;;;;7762579;22;20075;-88
2023/04/14 02:50:49;;;;;;;34.60;19.63;;;;;;;;;;7761997;22;19999;-88
2023/04/14 02:53:50;;;;;;;33.20;19.23;;;;;;;;;;7763911;22;19991;-88
2023/04/14 02:56:52;;;;;;;34.00;18.80;;;;;;;;;;7762339;22;20026;-88
2023/04/14 02:59:52;;;;;;;;;;;;;;;;;;7762974;22;20049;-88
2023/04/14 03:02:52;;;;;;;33.47;19.30;;;;;;;;;;7789807;22;20313;-88
2023/04/14 03:05:52;;;;;;;29.80;17.97;;;;;;;;;;7790169;22;20511;-88
2023/04/14 03:08:53;;;;;;;34.23;19.70;;;;;;;;;;7763166;22;19995;-88
2023/04/14 03:11:54;;;;;;;30.10;19.57;;;;;;;;;;7762594;22;20023;-88
2023/04/14 03:14:56;;;;;;;31.47;20.10;;;;;;;;;;7762714;22;20006;-87
2023/04/14 03:17:57;;;;;;;36.50;19.30;;;;;;;;;;7762319;22;20018;-88
2023/04/14 03:21:00;;;;;;;34.33;19.75;;;;;;;;;;7762558;22;20019;-88
2023/04/14 03:24:01;;;;;;;32.20;18.90;;;;;;;;;;7762371;22;20008;-88
2023/04/14 03:27:04;;;;;;;30.87;18.33;;;;;;;;;;7762674;22;20453;-88
2023/04/14 03:30:06;;;;;;;30.15;19.38;;;;;;;;;;7762371;22;20439;-87
2023/04/14 03:33:10;;;;;;;34.00;19.25;;;;;;;;;;7762022;22;20173;-88
2023/04/14 03:36:11;;;;;;;32.58;18.08;;;;;;;;;;7761684;22;20006;-87
2023/04/14 03:39:13;;;;;;;28.37;18.40;;;;;;;;;;7762638;22;19995;-87
2023/04/14 03:42:17;;;;;;;32.67;18.63;;;;;;;;;;7790511;22;20067;-88
2023/04/14 03:45:18;;;;;;;34.88;21.20;;;;;;;;;;7791020;22;20003;-87
2023/04/14 03:48:19;;;;;;;36.20;20.00;;;;;;;;;;7791211;22;20412;-88
2023/04/14 03:51:21;;;;;;;34.27;20.90;;;;;;;;;;7763841;22;20053;-88
2023/04/14 03:54:23;;;;;;;33.40;19.95;;;;;;;;;;7765093;22;20489;-88
2023/04/14 03:57:24;;;;;;;30.10;20.40;;;;;;;;;;7765540;22;19996;-88
2023/04/14 04:00:25;;;;;;;;;;;;;;;;;;7794320;22;20035;-87
2023/04/14 04:03:25;;;;;;;31.00;18.77;;;;;;;;;;7779236;22;19903;-87
2023/04/14 04:06:26;;;;;;;32.70;18.53;;;;;;;;;;7796706;22;20049;-87
2023/04/14 04:09:28;;;;;;;35.58;21.17;;;;;;;;;;7823814;22;19992;-88
2023/04/14 04:12:30;;;;;;;35.53;21.23;;;;;;;;;;7769557;22;20000;-88
2023/04/14 04:15:31;;;;;;;35.92;21.27;;;;;;;;;;7763139;22;20324;-88
2023/04/14 04:18:33;;;;;;;39.47;23.15;;;;;;;;;;7763359;22;20002;-88
2023/04/14 04:21:38;;;;;;;38.78;22.65;;;;;;;;;;7791343;22;20014;-87
2023/04/14 04:24:41;;;;;;;41.35;24.83;;;;;;;;;;7764693;22;20379;-88
2023/04/14 04:27:42;;;;;;;43.42;26.60;;;;;;;;;;7763106;22;20474;-87
2023/04/14 04:30:44;;;;;;;43.57;27.13;;;;;;;;;;7763529;22;20004;-87
2023/04/14 04:33:45;;;;;;;41.33;26.60;;;;;;;;;;7762579;22;19998;-87
2023/04/14 04:36:46;;;;;;;43.53;25.08;;;;;;;;;;7762811;22;19999;-88
2023/04/14 04:39:49;;;;;;;45.23;26.17;;;;;;;;;;7761445;22;20427;-87
2023/04/14 04:42:49;;;;;;;42.97;26.02;;;;;;;;;;7761464;22;20328;-87
2023/04/14 04:46:08;;;;;;;57.73;31.03;;;;;;;;;;7787313;22;19995;-87
2023/04/14 04:49:08;;;;;;;53.65;27.38;;;;;;;;;;7787851;22;19999;-87
2023/04/14 04:52:10;;;;;;;58.57;29.60;;;;;;;;;;7760738;22;20097;-87
2023/04/14 04:55:10;;;;;;;50.13;30.48;;;;;;;;;;7786312;22;19992;-87
2023/04/14 04:58:10;;;;;;;38.97;23.77;;;;;;;;;;7787041;22;20030;-88
2023/04/14 05:01:11;;;;;;;40.30;24.53;;;;;;;;;;7760118;22;20081;-89
2023/04/14 05:04:11;;;;;;;44.63;23.47;;;;;;;;;;7760184;22;20003;-88
2023/04/14 05:07:11;;;;;;;38.80;23.20;;;;;;;;;;7762212;22;19996;-87
2023/04/14 05:10:12;;;;;;;38.30;22.53;;;;;;;;;;7762510;22;20421;-87
2023/04/14 05:13:12;;;;;;;34.67;20.43;;;;;;;;;;7763847;22;20007;-86
2023/04/14 05:16:12;;;;;;;35.97;22.33;;;;;;;;;;7761421;22;20058;-86
2023/04/14 05:19:14;;;;;;;34.83;22.40;;;;;;;;;;7764421;22;19995;-87
2023/04/14 05:22:14;;;;;;;33.92;20.77;;;;;;;;;;7762937;22;20011;-87
2023/04/14 05:25:15;;;;;;;34.87;21.77;;;;;;;;;;7768122;22;20007;-88
2023/04/14 05:28:15;;;;;;;34.33;22.30;;;;;;;;;;7766570;22;19992;-87
2023/04/14 05:31:15;;;;;;;32.27;19.03;;;;;;;;;;7770876;22;19991;-88
2023/04/14 05:34:16;;;;;;;37.27;23.93;;;;;;;;;;7775620;22;20500;-88
2023/04/14 05:37:16;;;;;;;39.20;24.07;;;;;;;;;;7768823;22;19996;-88
2023/04/14 05:40:16;;;;;;;42.73;27.03;;;;;;;;;;7770105;22;20322;-88
2023/04/14 05:43:17;;;;;;;42.50;25.70;;;;;;;;;;7770360;22;20011;-87
2023/04/14 05:46:17;;;;;;;46.47;27.37;;;;;;;;;;7798278;22;20000;-88
2023/04/14 05:49:17;;;;;;;42.33;24.43;;;;;;;;;;7767346;22;19996;-87
2023/04/14 05:52:17;;;;;;;45.00;24.70;;;;;;;;;;7764027;22;20446;-88
2023/04/14 05:55:18;;;;;;;50.07;27.97;;;;;;;;;;7763882;22;20011;-86
2023/04/14 05:58:18;;;;;;;45.60;27.53;;;;;;;;;;7764156;22;19995;-87
2023/04/14 06:01:19;;;;;;;49.17;25.27;;;;;;;;;;7766182;22;20003;-88
2023/04/14 06:04:19;;;;;;;47.43;27.70;;;;;;;;;;7772481;22;20007;-87
2023/04/14 06:07:19;;;;;;;44.03;28.10;;;;;;;;;;7774405;22;19999;-87
2023/04/14 06:10:20;;;;;;;48.30;28.47;;;;;;;;;;7773915;22;19995;-87
2023/04/14 06:13:21;;;;;;;45.53;29.37;;;;;;;;;;7801006;22;20037;-88
2023/04/14 06:16:21;;;;;;;44.28;26.70;;;;;;;;;;7771411;22;20022;-87
2023/04/14 06:19:22;;;;;;;48.47;29.33;;;;;;;;;;7765448;22;20641;-88
2023/04/14 06:22:27;;;;;;;46.50;27.07;;;;;;;;;;7766583;22;20841;-88
2023/04/14 06:25:27;;;;;;;44.80;26.13;;;;;;;;;;7767694;22;20012;-88
2023/04/14 06:28:28;;;;;;;38.93;23.73;;;;;;;;;;7770503;22;19996;-87
2023/04/14 06:31:28;;;;;;;40.40;24.00;;;;;;;;;;7769813;22;19991;-87
2023/04/14 06:34:28;;;;;;;42.63;27.43;;;;;;;;;;7743431;22;20030;-87
2023/04/14 06:37:29;;;;;;;41.97;23.67;;;;;;;;;;7764917;22;20042;-87
2023/04/14 06:40:29;;;;;;;36.93;23.63;;;;;;;;;;7766026;22;20007;-87
2023/04/14 06:43:29;;;;;;;35.93;23.73;;;;;;;;;;7793971;22;20011;-87
2023/04/14 06:46:29;;;;;;;34.33;22.13;;;;;;;;;;7769711;22;20027;-87
2023/04/14 06:49:30;;;;;;;36.90;23.03;;;;;;;;;;7768478;22;20000;-87
2023/04/14 06:52:30;;;;;;;36.47;24.20;;;;;;;;;;7767222;22;19991;-87
2023/04/14 06:55:30;;;;;;;35.80;22.73;;;;;;;;;;7770285;22;20001;-87
2023/04/14 06:58:31;;;;;;;35.60;21.53;;;;;;;;;;7795593;22;20006;-87
2023/04/14 07:01:31;;;;;;;33.73;21.27;;;;;;;;;;7768144;22;20054;-88
2023/04/14 07:04:31;;;;;;;29.07;20.03;;;;;;;;;;7769271;22;20059;-88
2023/04/14 07:07:35;;;;;;;29.43;19.40;;;;;;;;;;7798169;22;19988;-88
2023/04/14 07:10:36;;;;;;;28.45;19.23;;;;;;;;;;7773030;22;19992;-88
2023/04/14 07:13:36;;;;;;;26.93;19.10;;;;;;;;;;7774683;22;20383;-88
2023/04/14 07:16:37;;;;;;;24.55;18.38;;;;;;;;;;7775022;22;20457;-88
2023/04/14 07:19:37;;;;;;;28.23;19.70;;;;;;;;;;7779740;22;19996;-88
2023/04/14 07:22:38;;;;;;;27.13;17.67;;;;;;;;;;7779464;22;19999;-89
2023/04/14 07:25:38;;;;;;;27.73;17.30;;;;;;;;;;7782678;22;20015;-89
2023/04/14 07:28:38;;;;;;;30.13;18.13;;;;;;;;;;7780325;22;20010;-89
2023/04/14 07:31:39;;;;;;;27.53;18.10;;;;;;;;;;7809612;22;20006;-88
2023/04/14 07:34:42;;;;;;;29.57;18.37;;;;;;;;;;7784232;22;20317;-89
2023/04/14 07:37:42;;;;;;;31.33;19.92;;;;;;;;;;7787494;22;19992;-88
2023/04/14 07:40:43;;;;;;;30.03;19.33;;;;;;;;;;7781111;22;20069;-88
2023/04/14 07:43:45;;;;;;;27.33;19.17;;;;;;;;;;7783320;22;20004;-88
2023/04/14 07:46:45;;;;;;;28.88;17.73;;;;;;;;;;7782714;22;19999;-88
2023/04/14 07:49:45;;;;;;;25.07;16.43;;;;;;;;;;7819837;22;20002;-88
2023/04/14 07:52:46;;;;;;;23.13;14.90;;;;;;;;;;7796940;22;20026;-89
2023/04/14 07:55:46;;;;;;;24.37;15.00;;;;;;;;;;7792603;22;20008;-89
2023/04/14 07:58:46;;;;;;;21.67;14.27;;;;;;;;;;7785336;22;20011;-89
2023/04/14 08:01:47;;;;;;;25.80;14.97;;;;;;;;;;7788319;22;19996;-89
2023/04/14 08:04:47;;;;;;;21.43;14.03;;;;;;;;;;7790097;22;19995;-89
2023/04/14 08:07:48;;;;;;;23.30;13.77;;;;;;;;;;7790700;22;20004;-89
2023/04/14 08:10:48;;;;;;;22.37;13.90;;;;;;;;;;7789635;22;20054;-89
2023/04/14 08:13:49;;;;;;;22.37;14.07;;;;;;;;;;7791615;22;20006;-89
2023/04/14 08:16:49;;;;;;;21.40;14.07;;;;;;;;;;7791440;22;20416;-89
2023/04/14 08:19:51;;;;;;;21.77;13.53;;;;;;;;;;7787984;22;19999;-89
2023/04/14 08:22:51;;;;;;;19.45;12.73;;;;;;;;;;7789588;22;20008;-89
2023/04/14 08:25:52;;;;;;;19.80;11.40;;;;;;;;;;7790884;22;19996;-89
2023/04/14 08:28:52;;;;;;;16.77;10.70;;;;;;;;;;7789695;22;19999;-89
2023/04/14 08:31:53;;;;;;;18.70;11.87;;;;;;;;;;7789650;22;20078;-90
2023/04/14 08:34:53;;;;;;;16.37;10.70;;;;;;;;;;7789726;22;20400;-89
2023/04/14 08:37:53;;;;;;;18.23;11.73;;;;;;;;;;7785630;22;20000;-89
2023/04/14 08:40:55;;;;;;;18.27;11.57;;;;;;;;;;7785793;22;20320;-89
2023/04/14 08:43:56;;;;;;;15.48;10.38;;;;;;;;;;7784562;22;20019;-90
2023/04/14 08:46:58;;;;;;;17.55;10.40;;;;;;;;;;7813973;22;19996;-88
2023/04/14 08:50:01;;;;;;;12.43;8.47;;;;;;;;;;7806393;22;20011;-89
2023/04/14 08:53:05;;;;;;;13.77;9.13;;;;;;;;;;7781645;22;20002;-89
2023/04/14 08:56:07;;;;;;;13.73;9.40;;;;;;;;;;7809270;22;20003;-88
2023/04/14 08:59:09;;;;;;;14.07;8.73;;;;;;;;;;7778913;22;19992;-89
2023/04/14 09:02:10;;;;;;;15.85;9.63;;;;;;;;;;7781083;22;19995;-89
2023/04/14 09:05:12;;;;;;;15.88;9.52;;;;;;;;;;7805556;22;20002;-89
2023/04/14 09:08:14;;;;;;;13.88;8.68;;;;;;;;;;7777453;22;19996;-89
2023/04/14 09:11:17;;;;;;;13.82;9.18;;;;;;;;;;7779150;22;20189;-89
2023/04/14 09:14:18;;;;;;;14.70;9.45;;;;;;;;;;7777811;22;20023;-89
2023/04/14 09:17:20;;;;;;;14.05;8.85;;;;;;;;;;7776316;22;20030;-89
2023/04/14 09:20:21;;;;;;;15.00;8.50;;;;;;;;;;7801741;22;20035;-89
2023/04/14 09:23:21;;;;;;;14.47;8.10;;;;;;;;;;7775806;22;20042;-89
2023/04/14 09:26:22;;;;;;;11.43;7.27;;;;;;;;;;7780768;22;19998;-89
2023/04/14 09:29:22;;;;;;;14.13;8.23;;;;;;;;;;7776212;22;20086;-89
2023/04/14 09:32:24;;;;;;;12.50;7.03;;;;;;;;;;7804819;22;20031;-89
2023/04/14 09:35:46;;;;;;;10.73;6.35;;;;;;;;;;7781535;22;20068;-89
2023/04/14 09:38:46;;;;;;;;;;;;;;;;;;7783953;22;19991;-90
2023/04/14 09:41:46;;;;;;;8.93;5.23;;;;;;;;;;7791832;22;19889;-90
2023/04/14 09:44:56;;;;;;;10.07;5.00;;;;;;;;;;7769957;22;19984;-91
2023/04/14 09:48:05;;;;;;;9.02;4.97;;;;;;;;;;7793157;22;20051;-90
2023/04/14 09:51:12;;;;;;;7.32;5.38;;;;;;;;;;7821096;22;19983;-90
2023/04/14 09:54:20;;;;;;;7.55;4.85;;;;;;;;;;7821487;22;20007;-90
2023/04/14 09:57:25;;;;;;;9.73;4.82;;;;;;;;;;7794786;22;19992;-90
2023/04/14 10:00:25;;;;;;;8.77;5.70;;;;;;;;;;7795353;22;20000;-90
2023/04/14 10:03:36;;;;;;;7.63;4.90;;;;;;;;;;7796329;22;20044;-90
2023/04/14 10:06:39;;;;;;;11.82;5.43;;;;;;;;;;7794059;22;20026;-90
2023/04/14 10:09:40;;;;;;;9.68;5.28;;;;;;;;;;7688569;22;20567;-84
2023/04/14 10:12:45;;;;;;;8.18;6.25;;;;;;;;;;7635095;22;19994;-84
2023/04/14 10:15:45;;;;;;;12.55;5.80;;;;;;;;;;7609050;23;20010;-80
2023/04/14 10:18:45;;;;;;;8.97;5.63;;;;;;;;;;7636062;23;20388;-83
2023/04/14 10:21:46;;;;;;;9.57;6.13;;;;;;;;;;7633743;22;20367;-84
2023/04/14 10:24:48;;;;;;;7.83;5.27;;;;;;;;;;7633588;22;20435;-84
2023/04/14 10:27:49;;;;;;;10.25;6.18;;;;;;;;;;7633653;23;20510;-83
2023/04/14 10:30:53;;;;;;;13.33;5.87;;;;;;;;;;7633171;23;20021;-83
2023/04/14 10:33:54;;;;;;;9.80;5.60;;;;;;;;;;7632504;23;20001;-73
2023/04/14 10:36:54;;;;;;;10.10;5.78;;;;;;;;;;7631652;23;20376;-74
2023/04/14 10:39:55;;;;;;;11.07;5.33;;;;;;;;;;7631575;22;19997;-74
2023/04/14 10:42:56;;;;;;;9.43;4.97;;;;;;;;;;7632523;23;20085;-73
2023/04/14 10:45:58;;;;;;;5.20;3.97;;;;;;;;;;7606250;23;19993;-74
2023/04/14 10:48:58;;;;;;;7.68;4.47;;;;;;;;;;7606451;23;20005;-74
2023/04/14 10:52:03;;;;;;;6.80;3.13;;;;;;;;;;7632435;22;20027;-74
2023/04/14 10:55:07;;;;;;;5.32;3.42;;;;;;;;;;7631786;23;20095;-74
2023/04/14 10:58:07;;;;;;;8.18;3.85;;;;;;;;;;7631485;23;20020;-74
2023/04/14 11:01:24;;;;;;;5.47;3.50;;;;;;;;;;7632150;23;19994;-75
2023/04/14 11:04:25;;;;;;;5.95;4.10;;;;;;;;;;7631878;22;20076;-75
2023/04/14 11:07:27;;;;;;;5.77;3.93;;;;;;;;;;7631052;22;19997;-75
2023/04/14 11:10:27;;;;;;;;;;;;;;;;;;7605763;23;20640;-74
2023/04/14 11:13:28;;;;;;;6.63;3.67;;;;;;;;;;7628407;23;19935;-74
2023/04/14 11:16:28;;;;;;;6.40;3.80;;;;;;;;;;7631340;23;20569;-74
2023/04/14 11:19:28;;;;;;;5.43;3.03;;;;;;;;;;7631224;23;20398;-74
2023/04/14 11:22:43;;;;;;;7.00;3.87;;;;;;;;;;7632081;22;20039;-73
2023/04/14 11:25:45;;;;;;;6.55;3.05;;;;;;;;;;7632052;23;20002;-74
2023/04/14 11:28:46;;;;;;;7.95;3.83;;;;;;;;;;7632120;23;20017;-74
2023/04/14 11:31:58;;;;;;;6.20;3.70;;;;;;;;;;7606724;23;20461;-75
2023/04/14 11:35:07;;;;;;;5.75;3.35;;;;;;;;;;7605270;23;20388;-74
2023/04/14 11:38:08;;;;;;;8.95;3.75;;;;;;;;;;7604436;23;20005;-74
2023/04/14 11:41:08;;;;;;;11.10;4.47;;;;;;;;;;7631112;23;20310;-74
2023/04/14 11:44:11;;;;;;;6.33;3.97;;;;;;;;;;7653215;22;20001;-83
2023/04/14 11:47:11;;;;;;;5.75;3.40;;;;;;;;;;7639646;23;20025;-83
2023/04/14 11:50:12;;;;;;;7.75;3.60;;;;;;;;;;7634423;23;20101;-85
2023/04/14 11:53:14;;;;;;;7.15;4.22;;;;;;;;;;7634880;23;20047;-85
2023/04/14 11:56:14;;;;;;;8.50;3.83;;;;;;;;;;7633931;22;20014;-84
2023/04/14 11:59:15;;;;;;;3.23;2.80;;;;;;;;;;7632523;23;19996;-84
2023/04/14 12:02:16;;;;;;;8.53;4.00;;;;;;;;;;7633493;23;20518;-84
2023/04/14 12:05:18;;;;;;;9.13;3.95;;;;;;;;;;7636410;23;20084;-83
2023/04/14 12:08:22;;;;;;;8.50;3.67;;;;;;;;;;7634779;22;20002;-84
2023/04/14 12:11:24;;;;;;;7.68;3.85;;;;;;;;;;7635791;22;20039;-84
2023/04/14 12:14:24;;;;;;;7.68;3.72;;;;;;;;;;7635956;23;20447;-83
2023/04/14 12:17:24;;;;;;;6.23;3.63;;;;;;;;;;7633353;23;19994;-82
2023/04/14 12:20:26;;;;;;;9.53;4.33;;;;;;;;;;7635305;23;20416;-82
2023/04/14 12:23:27;;;;;;;7.00;4.60;;;;;;;;;;7639310;23;20424;-83
2023/04/14 12:26:27;;;;;;;8.10;4.57;;;;;;;;;;7644646;23;19994;-82
2023/04/14 12:29:27;;;;;;;6.97;4.03;;;;;;;;;;7646939;23;20068;-85
2023/04/14 12:32:36;;;;;;;7.37;3.80;;;;;;;;;;7653781;23;20410;-83
2023/04/14 12:35:39;;;;;;;7.15;4.15;;;;;;;;;;7635776;23;20092;-82
2023/04/14 12:38:40;;;;;;;8.25;4.85;;;;;;;;;;7636207;23;19998;-83
2023/04/14 12:41:40;;;;;;;7.73;3.67;;;;;;;;;;7635982;22;20409;-83
2023/04/14 12:44:41;;;;;;;9.43;3.97;;;;;;;;;;7647539;23;20004;-83
2023/04/14 12:47:51;;;;;;;6.30;4.17;;;;;;;;;;7630259;23;20005;-82
2023/04/14 12:51:05;;;;;;;5.70;3.37;;;;;;;;;;7663492;23;20000;-81
2023/04/14 12:54:06;;;;;;;7.47;4.45;;;;;;;;;;7637009;23;20224;-75
2023/04/14 12:57:06;;;;;;;8.95;3.92;;;;;;;;;;7631228;22;20342;-74
2023/04/14 13:00:11;;;;;;;7.30;4.20;;;;;;;;;;7631533;23;20334;-75
2023/04/14 13:03:11;;;;;;;5.32;3.28;;;;;;;;;;7631587;23;20008;-81
2023/04/14 13:06:15;;;;;;;7.73;3.53;;;;;;;;;;7633062;23;20331;-82
2023/04/14 13:09:15;;;;;;;7.60;4.28;;;;;;;;;;7632384;23;20021;-83
2023/04/14 13:12:15;;;;;;;6.65;4.57;;;;;;;;;;7632364;23;20372;-84
2023/04/14 13:15:16;;;;;;;7.73;4.57;;;;;;;;;;7637630;23;20009;-86
2023/04/14 13:18:17;;;;;;;8.98;3.70;;;;;;;;;;7638632;23;20035;-84
2023/04/14 13:21:18;;;;;;;6.37;3.83;;;;;;;;;;7635136;23;19990;-83
2023/04/14 13:24:20;;;;;;;6.17;3.57;;;;;;;;;;7607970;23;20001;-84
2023/04/14 13:27:20;;;;;;;7.47;3.58;;;;;;;;;;7607907;23;20006;-85
2023/04/14 13:30:20;;;;;;;6.68;3.95;;;;;;;;;;7634605;23;19994;-86
2023/04/14 13:33:21;;;;;;;6.97;4.40;;;;;;;;;;7636958;23;20001;-83
2023/04/14 13:36:21;;;;;;;5.83;3.77;;;;;;;;;;7635786;23;20092;-83
2023/04/14 13:39:21;;;;;;;9.93;4.87;;;;;;;;;;7634524;23;19993;-84
2023/04/14 13:42:21;;;;;;;7.03;3.97;;;;;;;;;;7634611;23;19998;-83
2023/04/14 13:45:22;;;;;;;5.40;3.77;;;;;;;;;;7635675;23;19994;-83
2023/04/14 13:48:22;;;;;;;8.90;4.57;;;;;;;;;;7608855;23;20008;-84
2023/04/14 13:51:22;;;;;;;10.27;5.23;;;;;;;;;;7633493;22;19998;-84
2023/04/14 13:54:23;;;;;;;6.40;4.22;;;;;;;;;;7634615;23;20360;-84
2023/04/14 13:57:25;;;;;;;7.50;4.80;;;;;;;;;;7633198;23;20025;-84
2023/04/14 14:00:35;;;;;;;7.50;4.85;;;;;;;;;;7639946;22;20093;-84
2023/04/14 14:03:36;;;;;;;10.90;5.32;;;;;;;;;;7637526;23;20025;-74
2023/04/14 14:06:37;;;;;;;11.93;5.40;;;;;;;;;;7632159;23;20002;-76
2023/04/14 14:09:38;;;;;;;10.30;5.63;;;;;;;;;;7632787;23;20070;-75
2023/04/14 14:12:38;;;;;;;;;;;;;;;;;;7634233;23;20040;-83
2023/04/14 14:15:38;;;;;;;10.15;5.15;;;;;;;;;;7644462;23;19908;-84
2023/04/14 14:18:40;;;;;;;10.35;4.80;;;;;;;;;;7634736;23;20325;-84
2023/04/14 14:21:42;;;;;;;8.00;4.78;;;;;;;;;;7636235;22;19989;-83
2023/04/14 14:24:47;;;;;;;8.85;4.95;;;;;;;;;;7642226;22;20008;-83
2023/04/14 14:27:50;;;;;;;9.80;4.65;;;;;;;;;;7612363;23;20047;-82
2023/04/14 14:30:50;;;;;;;10.88;4.78;;;;;;;;;;7635655;23;19997;-84
2023/04/14 14:33:51;;;;;;;7.40;4.60;;;;;;;;;;7636029;23;20005;-83
2023/04/14 14:36:51;;;;;;;10.40;4.20;;;;;;;;;;7638455;23;20027;-85
2023/04/14 14:39:52;;;;;;;10.87;4.40;;;;;;;;;;7642052;23;20310;-82
2023/04/14 14:42:53;;;;;;;7.03;4.00;;;;;;;;;;7635229;22;20081;-83
2023/04/14 14:45:53;;;;;;;11.00;5.07;;;;;;;;;;7633795;23;20001;-83
2023/04/14 14:48:56;;;;;;;8.07;4.20;;;;;;;;;;7609395;23;20012;-84
2023/04/14 14:51:57;;;;;;;10.73;4.70;;;;;;;;;;7646176;23;20001;-83
2023/04/14 14:54:57;;;;;;;6.30;4.00;;;;;;;;;;7633934;22;20005;-83
2023/04/14 14:57:57;;;;;;;8.67;4.77;;;;;;;;;;7633982;23;20005;-83
2023/04/14 15:00:57;;;;;;;7.87;4.77;;;;;;;;;;7633705;23;20337;-83
2023/04/14 15:04:06;;;;;;;11.50;5.15;;;;;;;;;;7639648;23;20055;-83
2023/04/14 15:07:07;;;;;;;7.68;5.03;;;;;;;;;;7639160;23;19998;-82
2023/04/14 15:10:07;;;;;;;7.40;4.37;;;;;;;;;;7637208;23;20017;-82
2023/04/14 15:13:07;;;;;;;9.30;5.30;;;;;;;;;;7637271;23;19997;-82
2023/04/14 15:16:08;;;;;;;9.32;4.32;;;;;;;;;;7649632;23;20006;-79
2023/04/14 15:19:08;;;;;;;11.87;5.97;;;;;;;;;;7665637;22;19990;-82
2023/04/14 15:22:09;;;;;;;8.97;4.63;;;;;;;;;;7662716;22;20001;-75
2023/04/14 15:25:09;;;;;;;7.87;4.63;;;;;;;;;;7630719;22;20076;-75
2023/04/14 15:28:11;;;;;;;10.13;5.30;;;;;;;;;;7631104;23;20001;-74
2023/04/14 15:31:11;;;;;;;11.30;5.25;;;;;;;;;;7605022;23;19998;-74
2023/04/14 15:34:14;;;;;;;10.13;4.90;;;;;;;;;;7630743;23;20033;-75
2023/04/14 15:37:15;;;;;;;9.60;4.38;;;;;;;;;;7631627;23;20425;-76
2023/04/14 15:40:15;;;;;;;11.20;5.27;;;;;;;;;;7631678;23;20000;-75
2023/04/14 15:43:16;;;;;;;8.37;4.60;;;;;;;;;;7630635;23;19997;-75
2023/04/14 15:46:17;;;;;;;9.70;4.82;;;;;;;;;;7630220;23;20421;-75
2023/04/14 15:49:21;;;;;;;6.85;4.72;;;;;;;;;;7631582;23;20642;-75
2023/04/14 15:52:22;;;;;;;7.30;4.50;;;;;;;;;;7630885;23;20009;-74
2023/04/14 15:55:22;;;;;;;12.37;5.70;;;;;;;;;;7603638;23;20013;-74
2023/04/14 15:58:23;;;;;;;10.43;5.50;;;;;;;;;;7630676;23;20006;-75
2023/04/14 16:01:23;;;;;;;15.07;6.43;;;;;;;;;;7632605;22;20070;-74
2023/04/14 16:04:24;;;;;;;11.43;6.43;;;;;;;;;;7605549;23;19998;-74
2023/04/14 16:07:26;;;;;;;10.57;5.17;;;;;;;;;;7631380;23;19998;-75
2023/04/14 16:10:26;;;;;;;9.45;5.32;;;;;;;;;;7630981;23;20027;-75
2023/04/14 16:13:26;;;;;;;9.33;5.23;;;;;;;;;;7631937;23;19997;-76
2023/04/14 16:16:27;;;;;;;10.63;5.47;;;;;;;;;;7631029;23;20024;-74
2023/04/14 16:19:27;;;;;;;10.93;5.93;;;;;;;;;;7631605;23;20055;-75
2023/04/14 16:22:29;;;;;;;12.07;5.27;;;;;;;;;;7632388;23;20007;-80
2023/04/14 16:25:30;;;;;;;10.57;5.88;;;;;;;;;;7650058;22;20119;-80
2023/04/14 16:28:31;;;;;;;12.20;6.13;;;;;;;;;;7654370;23;19997;-81
2023/04/14 16:31:32;;;;;;;;;;;;;;;;;;7615565;23;19990;-84
2023/04/14 16:34:33;;;;;;;12.45;6.18;;;;;;;;;;7630735;23;20296;-75
2023/04/14 16:37:33;;;;;;;12.40;5.88;;;;;;;;;;7632091;23;20142;-75
2023/04/14 16:40:34;;;;;;;10.97;5.73;;;;;;;;;;7631706;23;20072;-75
2023/04/14 16:43:36;;;;;;;12.00;5.67;;;;;;;;;;7630897;23;20065;-75
2023/04/14 16:46:36;;;;;;;10.73;6.15;;;;;;;;;;7630962;22;20001;-75
2023/04/14 16:49:36;;;;;;;10.83;6.03;;;;;;;;;;7631147;23;19997;-75
2023/04/14 16:52:36;;;;;;;15.50;6.77;;;;;;;;;;7631532;23;19994;-74
2023/04/14 16:55:37;;;;;;;8.47;5.67;;;;;;;;;;7631549;23;20479;-76
2023/04/14 16:58:37;;;;;;;11.33;5.23;;;;;;;;;;7631345;22;20429;-74
2023/04/14 17:01:38;;;;;;;13.03;6.47;;;;;;;;;;7605043;23;19994;-74
2023/04/14 17:04:38;;;;;;;10.70;7.17;;;;;;;;;;7631255;23;20535;-74
2023/04/14 17:07:38;;;;;;;14.10;6.37;;;;;;;;;;7628133;23;20028;-74
2023/04/14 17:10:40;;;;;;;14.35;5.85;;;;;;;;;;7628012;23;20017;-75
2023/04/14 17:13:41;;;;;;;11.43;6.90;;;;;;;;;;7631098;22;20417;-74
2023/04/14 17:16:41;;;;;;;12.93;7.60;;;;;;;;;;7605427;23;20017;-75
2023/04/14 17:19:41;;;;;;;14.57;7.17;;;;;;;;;;7604155;23;20342;-75
2023/04/14 17:22:42;;;;;;;14.93;8.25;;;;;;;;;;7631707;23;20452;-75
2023/04/14 17:25:43;;;;;;;12.70;7.70;;;;;;;;;;7606246;23;19997;-74
2023/04/14 17:28:44;;;;;;;13.77;6.95;;;;;;;;;;7607322;23;20440;-75
2023/04/14 17:31:45;;;;;;;12.82;6.75;;;;;;;;;;7633357;23;20364;-76
2023/04/14 17:34:50;;;;;;;11.97;6.80;;;;;;;;;;7634136;23;20028;-80
2023/04/14 17:37:51;;;;;;;12.90;7.25;;;;;;;;;;7634950;23;19994;-74
2023/04/14 17:40:52;;;;;;;11.80;6.78;;;;;;;;;;7633448;22;20076;-74
2023/04/14 17:43:52;;;;;;;13.37;6.87;;;;;;;;;;7638262;22;20077;-82
2023/04/14 17:46:52;;;;;;;11.60;6.97;;;;;;;;;;7640136;23;20009;-81
2023/04/14 17:49:53;;;;;;;13.67;7.73;;;;;;;;;;7634429;22;20006;-83